Ana Sayfa
METAR-TAF:

METAR-TAF

Havaalanları :

Sogndal, Norveç

Enlem: 61-09N, Boylam: 007-08E, yükseklik: 49 m

Güncel hava durumu gözlemi

Rapor saat 18:50 UTC de 21 dakika önce yapıldı.
Rüzgar değişken yönden 2 kt
Sıcaklık -6°C
Nem 93%
Basınç 1000 hPa
Görüş mesafesi 10 km veya daha fazla
4000 ft yükseklikte az bulutlu
18000 ft yükseklikte parçalı bulutlu

METAR: ENSG 241850Z VRB02KT 9999 FEW040 SCT180 M06/M07 Q1000 RMK WIND 3806FT 04008KT

Saat: 20:11 (19:11 UTC)


TAF: eksik

4.000'den fazla havaalanı için hava durumu gözlemleri ve tahminleri (METAR ve TAF raporları).

Kullanılabilir istasyonlar harita üzerinde sarı ve kırmızı noktalarla gösterilir.

İstasyonun adını görmek için fareyi noktanın üzerinde gezdirin.

Sonrasında hava gözlem ve tahminlerini görmek için tıklayın.

Haritayı değiştirmek için: yaklaştırmak için siyah artı işaretli yeşil düğmeye ve uzaklaştırmak için de eksi işaretli düğmeye hızla tıklayın; bitişik haritalar için yeşil okları kullanın.


METAR-TAF: